Time;durP1;ratioP1;P1;durP2;ratioP2;P2;SDS_P1;SDS_P2;PMS_P1;PMS_P2;Temp;Humidity;BMP_temperature;BMP_pressure;BME280_temperature;BME280_humidity;BME280_pressure;Samples;Min_cycle;Max_cycle;Signal;HPM_P1;HPM_P2
2023/04/18 00:01:13;;;;;;;124.72;69.43;;;8.60;91.50;;;;;;5020751;28;20042;-76
2023/04/18 00:03:39;;;;;;;114.80;69.90;;;8.60;91.50;;;;;;5022222;28;20478;-76
2023/04/18 00:06:05;;;;;;;122.35;72.10;;;8.60;91.60;;;;;;5028721;28;20053;-76
2023/04/18 00:08:32;;;;;;;124.15;69.18;;;8.50;91.60;;;;;;5023739;28;20084;-76
2023/04/18 00:10:58;;;;;;;116.20;70.53;;;8.40;91.60;;;;;;5022747;28;20285;-76
2023/04/18 00:13:24;;;;;;;121.65;71.80;;;8.40;91.70;;;;;;5019811;28;20037;-77
2023/04/18 00:15:53;;;;;;;116.95;70.47;;;8.40;91.60;;;;;;5019237;28;20029;-76
2023/04/18 00:18:18;;;;;;;121.55;70.40;;;8.40;91.60;;;;;;5023122;28;20021;-77
2023/04/18 00:20:45;;;;;;;115.40;71.82;;;8.40;91.70;;;;;;5016748;28;20041;-77
2023/04/18 00:23:12;;;;;;;113.07;66.38;;;8.30;91.70;;;;;;5019772;28;20696;-77
2023/04/18 00:25:39;;;;;;;114.15;69.78;;;8.40;91.60;;;;;;5013522;28;20026;-76
2023/04/18 00:28:05;;;;;;;109.95;67.00;;;8.30;91.50;;;;;;5016899;28;20025;-76
2023/04/18 00:30:30;;;;;;;117.82;67.75;;;8.20;91.50;;;;;;5024492;28;20025;-76
2023/04/18 00:32:56;;;;;;;116.95;66.30;;;8.30;91.50;;;;;;5025312;28;20033;-77
2023/04/18 00:35:22;;;;;;;107.68;64.85;;;8.20;91.50;;;;;;5023953;28;20548;-76
2023/04/18 00:37:48;;;;;;;115.10;66.70;;;8.20;91.60;;;;;;5025492;28;20025;-76
2023/04/18 00:40:13;;;;;;;110.53;66.47;;;8.20;91.50;;;;;;5025346;28;20035;-76
2023/04/18 00:42:39;;;;;;;111.43;65.85;;;8.20;91.50;;;;;;5023768;28;20512;-76
2023/04/18 00:45:05;;;;;;;110.85;65.93;;;8.20;91.50;;;;;;5014246;28;20021;-77
2023/04/18 00:47:31;;;;;;;110.07;64.78;;;8.10;91.40;;;;;;5021521;28;20432;-77
2023/04/18 00:49:58;;;;;;;111.85;64.57;;;8.10;91.50;;;;;;5023838;28;20029;-77
2023/04/18 00:52:26;;;;;;;100.55;63.25;;;8.10;91.40;;;;;;5022871;28;20056;-77
2023/04/18 00:54:51;;;;;;;104.47;64.65;;;8.10;91.30;;;;;;5010922;28;20060;-76
2023/04/18 00:57:17;;;;;;;101.05;62.15;;;8.10;91.40;;;;;;5023269;28;20064;-76
2023/04/18 00:59:45;;;;;;;107.22;66.18;;;8.00;91.40;;;;;;5012472;28;20670;-77
2023/04/18 01:02:11;;;;;;;105.45;63.42;;;7.90;91.30;;;;;;5025590;28;20482;-76
2023/04/18 01:04:37;;;;;;;99.80;62.60;;;7.90;91.40;;;;;;5017147;28;20101;-77
2023/04/18 01:07:03;;;;;;;98.80;61.90;;;8.00;91.40;;;;;;5022528;28;20036;-76
2023/04/18 01:09:29;;;;;;;101.72;64.45;;;7.90;91.40;;;;;;5013979;28;20025;-76
2023/04/18 01:11:55;;;;;;;103.35;64.95;;;7.80;91.30;;;;;;5023628;28;20105;-77
2023/04/18 01:14:21;;;;;;;96.85;63.95;;;7.90;91.30;;;;;;5018508;28;20576;-77
2023/04/18 01:16:47;;;;;;;97.50;62.55;;;7.90;91.30;;;;;;5014246;28;20037;-76
2023/04/18 01:19:14;;;;;;;96.57;61.42;;;7.80;91.10;;;;;;5024552;28;20028;-77
2023/04/18 01:21:42;;;;;;;103.75;64.50;;;7.80;91.10;;;;;;5017845;28;20050;-76
2023/04/18 01:24:16;;;;;;;102.15;63.63;;;7.80;91.10;;;;;;5017463;28;20035;-76
2023/04/18 01:26:43;;;;;;;99.73;63.40;;;7.80;91.00;;;;;;5019612;28;20438;-76
2023/04/18 01:29:09;;;;;;;94.57;61.22;;;7.70;91.00;;;;;;5021868;28;20021;-76
2023/04/18 01:31:36;;;;;;;100.32;62.35;;;7.70;91.00;;;;;;5012035;28;20054;-76
2023/04/18 01:34:03;;;;;;;94.93;59.55;;;7.70;91.00;;;;;;5018779;28;20025;-77
2023/04/18 01:36:29;;;;;;;91.82;61.67;;;7.70;90.90;;;;;;5016067;28;20049;-76
2023/04/18 01:38:55;;;;;;;97.63;62.30;;;7.60;90.80;;;;;;5021575;28;20425;-76
2023/04/18 01:41:20;;;;;;;97.13;61.45;;;7.60;90.80;;;;;;5023759;28;20543;-78
2023/04/18 01:43:46;;;;;;;94.85;59.33;;;7.60;90.90;;;;;;5023756;28;20625;-77
2023/04/18 01:46:12;;;;;;;91.05;59.90;;;7.60;90.70;;;;;;5023343;28;20041;-76
2023/04/18 01:48:37;;;;;;;90.47;60.42;;;7.60;90.80;;;;;;5018097;28;20026;-77
2023/04/18 01:51:03;;;;;;;93.05;60.97;;;7.50;90.70;;;;;;5022982;28;20083;-77
2023/04/18 01:53:29;;;;;;;98.05;62.63;;;7.50;90.70;;;;;;5020920;28;20033;-76
2023/04/18 01:55:57;;;;;;;90.22;58.53;;;7.50;90.70;;;;;;5027433;28;20095;-77
2023/04/18 01:58:24;;;;;;;86.80;57.83;;;7.40;90.70;;;;;;5017383;28;20083;-76
2023/04/18 02:00:53;;;;;;;93.18;60.13;;;7.50;90.60;;;;;;5021586;28;20042;-76
2023/04/18 02:03:19;;;;;;;90.32;59.53;;;7.50;90.60;;;;;;5021014;28;20052;-76
2023/04/18 02:05:46;;;;;;;92.88;59.10;;;7.40;90.60;;;;;;5016034;28;20037;-77
2023/04/18 02:08:12;;;;;;;90.97;60.28;;;7.40;90.50;;;;;;5025776;28;20029;-76
2023/04/18 02:10:38;;;;;;;84.40;57.60;;;7.30;90.50;;;;;;5022992;28;20107;-77
2023/04/18 02:13:05;;;;;;;90.72;59.05;;;7.40;90.60;;;;;;5014517;28;20077;-77
2023/04/18 02:15:31;;;;;;;89.35;57.28;;;7.30;90.40;;;;;;5024599;28;20020;-77
2023/04/18 02:17:58;;;;;;;88.22;59.63;;;7.30;90.40;;;;;;5018499;28;20388;-77
2023/04/18 02:20:25;;;;;;;86.70;57.30;;;7.30;90.30;;;;;;5027360;28;20401;-77
2023/04/18 02:22:51;;;;;;;86.97;58.20;;;7.30;90.30;;;;;;5026681;28;20103;-77
2023/04/18 02:25:17;;;;;;;87.93;58.72;;;7.20;90.30;;;;;;5026406;28;20026;-78
2023/04/18 02:27:43;;;;;;;87.00;56.92;;;7.20;90.30;;;;;;5023152;28;20042;-77
2023/04/18 02:30:09;;;;;;;85.65;57.28;;;7.20;90.30;;;;;;5026620;28;20029;-76
2023/04/18 02:32:35;;;;;;;84.88;57.50;;;7.20;90.30;;;;;;5028421;28;20567;-76
2023/04/18 02:35:01;;;;;;;79.28;55.55;;;7.20;90.20;;;;;;5036434;28;20026;-76
2023/04/18 02:37:26;;;;;;;78.35;54.67;;;7.20;90.10;;;;;;5029735;28;20247;-77
2023/04/18 02:39:52;;;;;;;79.53;54.95;;;7.20;90.10;;;;;;5007873;28;20069;-76
2023/04/18 02:42:18;;;;;;;82.90;55.78;;;7.20;90.00;;;;;;5022893;28;20060;-77
2023/04/18 02:44:44;;;;;;;74.95;53.70;;;7.20;89.90;;;;;;5023933;28;20057;-77
2023/04/18 02:47:10;;;;;;;75.70;52.03;;;7.20;89.90;;;;;;5012057;28;20485;-76
2023/04/18 02:49:35;;;;;;;79.38;54.05;;;7.20;89.80;;;;;;5033105;28;20382;-76
2023/04/18 02:52:01;;;;;;;80.82;54.90;;;7.10;89.70;;;;;;5022332;28;20061;-76
2023/04/18 02:54:27;;;;;;;77.78;51.85;;;7.10;89.80;;;;;;5026501;28;20026;-76
2023/04/18 02:56:53;;;;;;;78.82;54.35;;;7.10;89.70;;;;;;5025581;28;20125;-76
2023/04/18 02:59:19;;;;;;;73.55;52.97;;;7.10;89.80;;;;;;5027560;28;20525;-77
2023/04/18 03:01:46;;;;;;;71.45;50.35;;;7.10;89.80;;;;;;5025612;28;20049;-76
2023/04/18 03:04:11;;;;;;;74.53;52.10;;;7.10;89.80;;;;;;5028827;28;20099;-77
2023/04/18 03:06:37;;;;;;;73.22;51.03;;;7.10;89.70;;;;;;5033213;28;20029;-76
2023/04/18 03:09:03;;;;;;;71.28;51.25;;;7.10;89.80;;;;;;5021165;28;20030;-77
2023/04/18 03:11:29;;;;;;;73.53;52.03;;;7.00;89.70;;;;;;5031156;28;20454;-76
2023/04/18 03:13:55;;;;;;;75.88;52.60;;;7.00;89.80;;;;;;5020041;28;20459;-76
2023/04/18 03:16:21;;;;;;;72.13;52.30;;;7.00;89.90;;;;;;5028346;28;20111;-76
2023/04/18 03:18:47;;;;;;;78.72;51.85;;;7.00;89.90;;;;;;5021373;28;20042;-76
2023/04/18 03:21:13;;;;;;;77.07;52.70;;;7.00;89.90;;;;;;5028336;28;20053;-75
2023/04/18 03:23:39;;;;;;;74.95;53.13;;;7.00;89.90;;;;;;5018670;28;20033;-77
2023/04/18 03:26:06;;;;;;;75.30;53.70;;;7.00;89.90;;;;;;5023084;28;20035;-77
2023/04/18 03:28:32;;;;;;;78.97;52.95;;;7.00;89.90;;;;;;5023347;28;20073;-77
2023/04/18 03:30:58;;;;;;;73.25;51.65;;;7.00;89.90;;;;;;5020042;28;20111;-76
2023/04/18 03:33:24;;;;;;;73.93;51.90;;;7.00;89.90;;;;;;5019144;28;20057;-77
2023/04/18 03:35:50;;;;;;;73.82;53.58;;;6.90;89.80;;;;;;5028153;28;20679;-77
2023/04/18 03:38:15;;;;;;;75.18;51.97;;;6.90;89.90;;;;;;5020959;28;20040;-76
2023/04/18 03:40:43;;;;;;;76.88;51.90;;;7.00;89.90;;;;;;5023187;28;20374;-75
2023/04/18 03:43:09;;;;;;;70.38;49.88;;;6.90;89.90;;;;;;5021213;28;20029;-75
2023/04/18 03:45:35;;;;;;;78.13;54.72;;;6.90;90.00;;;;;;5024378;28;20030;-77
2023/04/18 03:48:00;;;;;;;73.72;51.58;;;6.90;90.00;;;;;;5018196;28;20033;-77
2023/04/18 03:50:26;;;;;;;71.53;51.38;;;6.90;90.10;;;;;;5016241;28;20069;-77
2023/04/18 03:52:52;;;;;;;72.03;51.45;;;6.90;90.20;;;;;;5024239;28;20041;-78
2023/04/18 03:55:18;;;;;;;81.50;54.20;;;6.90;90.30;;;;;;5019153;28;20033;-77
2023/04/18 03:57:45;;;;;;;77.20;53.80;;;6.90;90.20;;;;;;5026635;28;20125;-76
2023/04/18 04:00:11;;;;;;;76.35;54.15;;;6.90;90.30;;;;;;5026665;28;20542;-76
2023/04/18 04:02:37;;;;;;;80.72;55.13;;;6.90;90.30;;;;;;5023731;28;20522;-77
2023/04/18 04:05:03;;;;;;;79.47;53.72;;;6.90;90.30;;;;;;5018557;28;20030;-77
2023/04/18 04:07:30;;;;;;;78.38;55.30;;;6.80;90.50;;;;;;5022996;28;20132;-77
2023/04/18 04:09:57;;;;;;;77.07;54.60;;;6.80;90.60;;;;;;5026207;28;20394;-78
2023/04/18 04:12:24;;;;;;;75.72;55.15;;;6.80;90.60;;;;;;5021368;28;20049;-77
2023/04/18 04:14:49;;;;;;;77.53;54.83;;;6.80;90.60;;;;;;5025697;28;20022;-77
2023/04/18 04:17:15;;;;;;;80.22;54.90;;;6.80;90.60;;;;;;5023044;28;20063;-77
2023/04/18 04:19:41;;;;;;;80.40;56.25;;;6.70;90.60;;;;;;5025065;28;20021;-76
2023/04/18 04:22:07;;;;;;;77.93;55.72;;;6.70;90.70;;;;;;5024607;28;20090;-76
2023/04/18 04:24:34;;;;;;;79.65;55.95;;;6.70;90.80;;;;;;5020370;28;20030;-77
2023/04/18 04:27:00;;;;;;;83.68;56.60;;;6.70;90.90;;;;;;5015308;28;20065;-76
2023/04/18 04:29:27;;;;;;;78.57;55.90;;;6.70;90.90;;;;;;5012309;28;20558;-77
2023/04/18 04:31:53;;;;;;;77.78;55.67;;;6.70;90.90;;;;;;5023427;28;20046;-77
2023/04/18 04:34:20;;;;;;;79.30;56.67;;;6.70;90.80;;;;;;5013112;28;20467;-77
2023/04/18 04:36:46;;;;;;;78.60;55.22;;;6.70;91.00;;;;;;5013727;28;20328;-75
2023/04/18 04:39:13;;;;;;;78.65;54.88;;;6.70;91.00;;;;;;5019362;28;20041;-77
2023/04/18 04:41:39;;;;;;;78.38;54.67;;;6.60;91.00;;;;;;5014881;28;20044;-76
2023/04/18 04:44:05;;;;;;;78.68;54.20;;;6.60;90.90;;;;;;5012689;28;20369;-76
2023/04/18 04:46:32;;;;;;;80.40;55.03;;;6.70;91.00;;;;;;5011693;28;20037;-75
2023/04/18 04:48:58;;;;;;;80.45;57.33;;;6.70;91.10;;;;;;5004441;28;20033;-76
2023/04/18 04:51:24;;;;;;;78.88;55.33;;;6.70;91.00;;;;;;5006146;28;20462;-76
2023/04/18 04:53:50;;;;;;;79.68;55.70;;;6.70;91.10;;;;;;5002570;28;20029;-78
2023/04/18 04:56:16;;;;;;;80.50;55.15;;;6.70;91.10;;;;;;5011874;28;20052;-75
2023/04/18 04:58:42;;;;;;;80.72;56.95;;;6.60;91.10;;;;;;5015153;28;20466;-78
2023/04/18 05:01:08;;;;;;;77.45;54.10;;;6.70;91.10;;;;;;5027062;28;20517;-76
2023/04/18 05:03:35;;;;;;;81.97;57.40;;;6.70;91.00;;;;;;5012976;28;20091;-76
2023/04/18 05:06:00;;;;;;;82.20;54.95;;;6.70;90.90;;;;;;5016891;28;20049;-77
2023/04/18 05:08:26;;;;;;;79.38;55.72;;;6.70;90.90;;;;;;5020688;28;20037;-77
2023/04/18 05:10:52;;;;;;;73.63;52.58;;;6.80;90.90;;;;;;5019242;28;20030;-76
2023/04/18 05:13:17;;;;;;;72.70;51.20;;;6.80;90.80;;;;;;5023335;28;20034;-75
2023/04/18 05:15:43;;;;;;;72.60;51.88;;;6.80;90.60;;;;;;5013915;28;20056;-77
2023/04/18 05:18:09;;;;;;;71.03;50.67;;;6.90;90.40;;;;;;5016906;28;20033;-77
2023/04/18 05:20:34;;;;;;;72.53;48.60;;;6.90;90.30;;;;;;5021050;28;20048;-76
2023/04/18 05:23:00;;;;;;;67.05;48.30;;;6.90;90.20;;;;;;5014825;28;20564;-76
2023/04/18 05:25:26;;;;;;;64.82;46.08;;;6.90;90.00;;;;;;5012672;28;20037;-75
2023/04/18 05:27:51;;;;;;;65.53;46.83;;;7.00;89.70;;;;;;5019631;28;20120;-76
2023/04/18 05:30:17;;;;;;;64.40;45.38;;;7.00;89.60;;;;;;5020453;28;20043;-74
2023/04/18 05:32:43;;;;;;;65.03;45.22;;;7.10;89.40;;;;;;5025712;28;20052;-76
2023/04/18 05:35:09;;;;;;;61.10;42.67;;;7.10;89.10;;;;;;5026678;28;21421;-76
2023/04/18 05:37:35;;;;;;;62.67;43.75;;;7.10;88.90;;;;;;5027215;28;20037;-76
2023/04/18 05:40:00;;;;;;;56.85;41.60;;;7.10;88.70;;;;;;5027782;28;20553;-76
2023/04/18 05:42:26;;;;;;;55.67;41.00;;;7.20;88.40;;;;;;5029573;28;20042;-75
2023/04/18 05:44:52;;;;;;;55.97;41.40;;;7.20;88.20;;;;;;5023753;28;20120;-79
2023/04/18 05:47:17;;;;;;;54.72;39.92;;;7.10;88.10;;;;;;5025293;28;20482;-77
2023/04/18 05:49:43;;;;;;;57.55;39.38;;;7.20;88.00;;;;;;5018003;28;20643;-78
2023/04/18 05:52:10;;;;;;;56.22;38.65;;;7.30;87.60;;;;;;5012651;28;20033;-79
2023/04/18 05:54:35;;;;;;;55.72;39.28;;;7.30;87.30;;;;;;5020483;28;20022;-78
2023/04/18 05:57:01;;;;;;;50.90;37.15;;;7.30;86.80;;;;;;5020665;28;20052;-82
2023/04/18 05:59:27;;;;;;;48.83;35.90;;;7.30;86.60;;;;;;5016470;28;20046;-80
2023/04/18 06:01:53;;;;;;;50.03;37.08;;;7.30;86.40;;;;;;5021872;28;20132;-81
2023/04/18 06:04:19;;;;;;;47.47;36.63;;;7.40;86.20;;;;;;5014886;28;20057;-80
2023/04/18 06:06:45;;;;;;;46.50;33.22;;;7.50;85.80;;;;;;5013769;28;20114;-79
2023/04/18 06:09:11;;;;;;;51.47;33.47;;;7.60;85.70;;;;;;5012673;28;20640;-79
2023/04/18 06:11:36;;;;;;;50.55;34.83;;;7.50;85.10;;;;;;5017315;28;20046;-80
2023/04/18 06:14:02;;;;;;;41.45;32.08;;;7.60;85.00;;;;;;5016499;28;20427;-79
2023/04/18 06:16:28;;;;;;;42.72;31.08;;;7.70;84.80;;;;;;5014151;28;20083;-77
2023/04/18 06:18:54;;;;;;;42.88;31.10;;;7.70;84.20;;;;;;5017387;28;20037;-80
2023/04/18 06:21:20;;;;;;;40.88;29.98;;;7.70;84.20;;;;;;5010541;28;20042;-82
2023/04/18 06:23:46;;;;;;;38.15;29.05;;;7.80;83.80;;;;;;5010343;28;20018;-79
2023/04/18 06:26:12;;;;;;;41.47;29.52;;;7.80;83.00;;;;;;5009333;28;20385;-78
2023/04/18 06:28:38;;;;;;;34.67;27.38;;;7.80;83.00;;;;;;5010491;28;20037;-79
2023/04/18 06:31:04;;;;;;;36.42;27.05;;;7.90;82.50;;;;;;5009101;28;20052;-80
2023/04/18 06:33:29;;;;;;;36.08;25.98;;;7.90;82.10;;;;;;5011709;28;20620;-80
2023/04/18 06:35:56;;;;;;;31.77;23.48;;;8.00;81.80;;;;;;5015718;28;20071;-80
2023/04/18 06:38:21;;;;;;;34.75;26.00;;;8.10;81.00;;;;;;5012136;28;20386;-79
2023/04/18 06:40:47;;;;;;;28.52;20.17;;;8.20;80.70;;;;;;5013455;28;20037;-79
2023/04/18 06:43:13;;;;;;;29.15;21.00;;;8.20;78.50;;;;;;5016238;28;20493;-82
2023/04/18 06:45:39;;;;;;;25.70;19.85;;;8.30;78.80;;;;;;5021037;28;20026;-83
2023/04/18 06:48:05;;;;;;;24.35;18.85;;;8.40;78.30;;;;;;5026067;28;20034;-78
2023/04/18 06:50:30;;;;;;;25.50;18.35;;;8.40;77.00;;;;;;5031754;28;20569;-81
2023/04/18 06:52:56;;;;;;;25.80;19.10;;;8.50;77.10;;;;;;5035436;28;20113;-78
2023/04/18 06:55:22;;;;;;;23.65;18.77;;;8.50;77.20;;;;;;5030554;28;20081;-80
2023/04/18 06:57:47;;;;;;;26.20;19.20;;;8.60;76.50;;;;;;5029808;28;20037;-77
2023/04/18 07:00:13;;;;;;;26.33;18.58;;;8.60;76.50;;;;;;5030259;28;20745;-79
2023/04/18 07:02:40;;;;;;;28.45;18.48;;;8.80;76.10;;;;;;5019887;28;20668;-80
2023/04/18 07:05:06;;;;;;;22.13;17.70;;;9.00;76.00;;;;;;5026340;28;20029;-77
2023/04/18 07:07:33;;;;;;;21.45;17.13;;;9.00;74.40;;;;;;5026438;28;20041;-77
2023/04/18 07:09:59;;;;;;;21.05;17.27;;;9.00;75.40;;;;;;5027180;28;20132;-79
2023/04/18 07:12:26;;;;;;;23.02;17.38;;;9.10;74.60;;;;;;5024947;28;20080;-79
2023/04/18 07:14:52;;;;;;;23.00;17.20;;;9.00;74.50;;;;;;5034898;28;20025;-87
2023/04/18 07:17:18;;;;;;;22.75;17.58;;;9.10;74.30;;;;;;5034067;28;20040;-82
2023/04/18 07:19:44;;;;;;;21.55;17.13;;;9.20;74.20;;;;;;5051621;28;20057;-83
2023/04/18 07:22:10;;;;;;;21.13;16.92;;;9.20;74.00;;;;;;5035814;28;20026;-86
2023/04/18 07:24:37;;;;;;;23.77;16.98;;;9.50;74.10;;;;;;5030318;28;20155;-85
2023/04/18 07:27:03;;;;;;;19.45;16.25;;;9.80;73.40;;;;;;5027330;28;20026;-85
2023/04/18 07:29:29;;;;;;;19.42;16.30;;;9.70;72.50;;;;;;5030162;28;20036;-86
2023/04/18 07:31:55;;;;;;;23.02;16.38;;;9.70;72.80;;;;;;5035689;28;20048;-85
2023/04/18 07:34:21;;;;;;;20.65;15.80;;;9.80;72.10;;;;;;5029577;28;20021;-84
2023/04/18 07:36:47;;;;;;;19.73;15.85;;;9.90;71.80;;;;;;5030701;28;20041;-83
2023/04/18 07:39:13;;;;;;;20.35;16.67;;;10.10;71.50;;;;;;5035152;28;20452;-86
2023/04/18 07:41:38;;;;;;;19.25;16.20;;;10.00;71.90;;;;;;5023960;28;20117;-79
2023/04/18 07:44:04;;;;;;;18.33;15.32;;;10.10;71.20;;;;;;5025793;28;20025;-82
2023/04/18 07:46:31;;;;;;;18.75;15.82;;;10.00;70.40;;;;;;5026578;28;20390;-82
2023/04/18 07:48:57;;;;;;;19.52;15.27;;;9.90;70.60;;;;;;5028463;28;20025;-85
2023/04/18 07:51:30;;;;;;;21.40;14.50;;;9.80;70.40;;;;;;5034744;28;20052;-79
2023/04/18 07:53:58;;;;;;;18.63;15.27;;;10.10;70.80;;;;;;5029231;28;20025;-79
2023/04/18 07:56:24;;;;;;;19.10;14.52;;;10.20;69.80;;;;;;5030106;28;20049;-80
2023/04/18 07:58:51;;;;;;;17.10;14.48;;;10.40;69.00;;;;;;5032812;28;20055;-81
2023/04/18 08:01:18;;;;;;;17.77;14.65;;;10.30;69.60;;;;;;5023096;28;20104;-81
2023/04/18 08:03:46;;;;;;;17.98;14.95;;;10.10;69.60;;;;;;5027979;28;20028;-79
2023/04/18 08:06:12;;;;;;;19.15;15.50;;;10.30;69.40;;;;;;5027568;28;20042;-81
2023/04/18 08:08:38;;;;;;;18.33;14.55;;;10.70;69.10;;;;;;5029134;28;20585;-79
2023/04/18 08:11:03;;;;;;;19.65;14.98;;;10.60;67.80;;;;;;5023324;28;20049;-78
2023/04/18 08:13:30;;;;;;;15.18;12.95;;;10.50;68.40;;;;;;5026939;28;20037;-79
2023/04/18 08:15:58;;;;;;;17.10;14.77;;;10.60;69.00;;;;;;5025161;28;20044;-79
2023/04/18 08:18:24;;;;;;;17.63;14.32;;;10.90;67.60;;;;;;5022083;28;20080;-79
2023/04/18 08:20:50;;;;;;;19.02;14.73;;;10.90;67.20;;;;;;5023686;28;20037;-79
2023/04/18 08:23:15;;;;;;;20.00;13.70;;;10.90;67.50;;;;;;5027601;28;20123;-80
2023/04/18 08:25:41;;;;;;;18.48;13.95;;;11.20;66.40;;;;;;5025674;28;20025;-78
2023/04/18 08:28:07;;;;;;;17.20;14.35;;;10.80;66.10;;;;;;5025432;28;20645;-79
2023/04/18 08:30:33;;;;;;;17.20;14.20;;;10.80;67.80;;;;;;5029437;28;20037;-81
2023/04/18 08:32:59;;;;;;;16.70;14.15;;;11.10;66.40;;;;;;5021220;28;20049;-79
2023/04/18 08:35:25;;;;;;;19.02;14.82;;;11.10;65.20;;;;;;5022847;28;20112;-77
2023/04/18 08:37:51;;;;;;;17.10;14.57;;;10.80;66.00;;;;;;5031132;28;20136;-79
2023/04/18 08:40:17;;;;;;;17.08;15.25;;;10.80;68.20;;;;;;5026526;28;20030;-80
2023/04/18 08:42:44;;;;;;;22.45;14.50;;;11.10;67.40;;;;;;5018576;28;20099;-79
2023/04/18 08:45:12;;;;;;;19.73;15.05;;;11.50;66.50;;;;;;5026198;28;20429;-77
2023/04/18 08:47:38;;;;;;;18.25;13.85;;;11.80;64.90;;;;;;5030574;28;20030;-79
2023/04/18 08:50:05;;;;;;;18.88;15.52;;;11.60;64.40;;;;;;5021874;28;20091;-83
2023/04/18 08:52:32;;;;;;;20.40;16.92;;;11.70;64.50;;;;;;5027366;28;20044;-78
2023/04/18 08:54:58;;;;;;;22.95;17.23;;;11.70;65.70;;;;;;5022331;28;20021;-79
2023/04/18 08:57:26;;;;;;;21.23;17.17;;;12.10;64.10;;;;;;5019715;28;20433;-79
2023/04/18 08:59:54;;;;;;;20.27;17.45;;;12.30;64.10;;;;;;5021917;28;20085;-78
2023/04/18 09:02:23;;;;;;;19.45;16.52;;;12.40;62.30;;;;;;5025795;28;20133;-78
2023/04/18 09:04:51;;;;;;;19.10;16.80;;;12.40;64.30;;;;;;5021543;28;20032;-79
2023/04/18 09:07:29;;;;;;;19.65;17.55;;;12.80;62.70;;;;;;5022459;28;20037;-78
2023/04/18 09:09:56;;;;;;;20.58;16.85;;;13.10;61.80;;;;;;5024490;28;20037;-78
2023/04/18 09:12:28;;;;;;;22.15;18.23;;;13.10;60.50;;;;;;5025897;28;20033;-77
2023/04/18 09:15:11;;;;;;;23.40;19.52;;;12.50;61.40;;;;;;5024256;28;20033;-78
2023/04/18 09:17:56;;;;;;;19.88;17.33;;;12.40;64.00;;;;;;5020028;28;20038;-78
2023/04/18 09:20:25;;;;;;;20.27;17.90;;;12.10;64.20;;;;;;5023507;28;20034;-76
2023/04/18 09:22:56;;;;;;;20.88;18.63;;;12.10;63.70;;;;;;5029317;28;20038;-76
2023/04/18 09:25:28;;;;;;;24.02;19.02;;;12.20;63.30;;;;;;5032115;28;20021;-76
2023/04/18 09:27:59;;;;;;;21.60;17.70;;;12.60;63.70;;;;;;5028364;28;20044;-82
2023/04/18 09:30:36;;;;;;;23.58;19.48;;;12.90;62.70;;;;;;5021840;28;20500;-83
2023/04/18 09:33:04;;;;;;;23.27;19.27;;;12.70;62.40;;;;;;5028885;28;20083;-77
2023/04/18 09:35:30;;;;;;;21.02;18.65;;;12.10;63.20;;;;;;5023039;28;20419;-79
2023/04/18 09:37:56;;;;;;;21.25;19.00;;;12.30;63.60;;;;;;5027608;28;20091;-78
2023/04/18 09:40:22;;;;;;;22.67;20.23;;;12.10;62.50;;;;;;5026710;28;20478;-79
2023/04/18 09:42:51;;;;;;;22.20;19.75;;;11.70;64.80;;;;;;5029072;28;20045;-78
2023/04/18 09:45:17;;;;;;;26.80;21.95;;;11.80;64.50;;;;;;5027993;28;20032;-79
2023/04/18 09:47:42;;;;;;;22.55;19.90;;;12.20;64.40;;;;;;5023759;28;20041;-78
2023/04/18 09:50:09;;;;;;;23.85;20.90;;;12.00;63.10;;;;;;5024380;28;20103;-76
2023/04/18 09:52:39;;;;;;;23.63;20.52;;;12.10;64.70;;;;;;5028339;28;20516;-77
2023/04/18 09:55:11;;;;;;;34.60;20.67;;;12.40;64.20;;;;;;5025283;28;20132;-75
2023/04/18 09:57:41;;;;;;;23.25;19.35;;;13.10;60.90;;;;;;5024365;28;20061;-77
2023/04/18 10:00:12;;;;;;;25.27;19.98;;;12.60;62.60;;;;;;5016575;28;20132;-79
2023/04/18 10:02:49;;;;;;;21.73;19.42;;;12.70;61.40;;;;;;5013214;28;20569;-77
2023/04/18 10:05:15;;;;;;;21.88;19.60;;;13.30;61.30;;;;;;5005712;28;20083;-78
2023/04/18 10:07:48;;;;;;;21.50;19.05;;;13.50;59.80;;;;;;5020720;28;20076;-78
2023/04/18 10:10:14;;;;;;;25.50;20.83;;;13.10;60.30;;;;;;5016955;28;20063;-77
2023/04/18 10:12:40;;;;;;;27.92;21.55;;;12.60;61.20;;;;;;5011271;28;20107;-78
2023/04/18 10:15:08;;;;;;;24.15;20.85;;;12.80;62.90;;;;;;5018557;28;20537;-77
2023/04/18 10:17:44;;;;;;;24.85;21.70;;;13.30;59.60;;;;;;5028242;28;20517;-80
2023/04/18 10:20:16;;;;;;;25.23;21.80;;;13.40;60.30;;;;;;5017924;28;20025;-79
2023/04/18 10:22:43;;;;;;;25.40;22.75;;;13.60;59.20;;;;;;5026378;28;20033;-79
2023/04/18 10:25:08;;;;;;;25.42;22.73;;;13.50;58.80;;;;;;5028334;28;20474;-79
2023/04/18 10:27:46;;;;;;;28.13;25.23;;;13.20;59.80;;;;;;5026666;28;20107;-79
2023/04/18 10:30:13;;;;;;;28.38;25.52;;;12.80;61.60;;;;;;5025697;28;20045;-79
2023/04/18 10:32:39;;;;;;;28.88;24.70;;;12.70;62.00;;;;;;5029055;28;20224;-79
2023/04/18 10:35:05;;;;;;;29.20;26.13;;;12.80;61.00;;;;;;5029491;28;20418;-80
2023/04/18 10:37:32;;;;;;;29.60;26.50;;;12.90;62.60;;;;;;5028105;28;20042;-79
2023/04/18 10:40:05;;;;;;;27.38;24.48;;;13.30;62.10;;;;;;5033231;28;20148;-79
2023/04/18 10:42:46;;;;;;;27.58;24.30;;;13.60;60.90;;;;;;5032235;28;20047;-82
2023/04/18 10:45:25;;;;;;;28.25;25.27;;;13.70;59.80;;;;;;5027234;28;20112;-78
2023/04/18 10:48:20;;;;;;;26.45;23.75;;;14.10;58.40;;;;;;5030754;28;20541;-79
2023/04/18 10:51:15;;;;;;;27.95;25.08;;;14.30;59.30;;;;;;5029651;28;20037;-77
2023/04/18 10:53:55;;;;;;;26.30;23.63;;;14.40;58.00;;;;;;5032892;28;20052;-78
2023/04/18 10:56:21;;;;;;;26.20;23.48;;;14.80;55.70;;;;;;5024402;28;20045;-79
2023/04/18 10:58:51;;;;;;;27.08;23.48;;;14.80;56.70;;;;;;5028231;28;20075;-79
2023/04/18 11:01:28;;;;;;;26.60;23.80;;;14.00;58.10;;;;;;5023703;28;20050;-78
2023/04/18 11:03:54;;;;;;;25.95;23.23;;;13.60;59.90;;;;;;5029483;28;20017;-78
2023/04/18 11:06:21;;;;;;;26.33;23.67;;;13.40;60.00;;;;;;5030108;28;20391;-78
2023/04/18 11:08:48;;;;;;;26.20;23.42;;;13.50;59.90;;;;;;5025360;28;20449;-79
2023/04/18 11:11:14;;;;;;;26.90;24.17;;;13.50;59.90;;;;;;5030394;28;20041;-78
2023/04/18 11:13:58;;;;;;;26.83;23.25;;;13.50;60.30;;;;;;5030948;28;20026;-79
2023/04/18 11:16:31;;;;;;;28.98;24.58;;;13.30;60.30;;;;;;5038301;28;20036;-79
2023/04/18 11:18:57;;;;;;;26.13;23.40;;;13.90;61.50;;;;;;5028138;28;20498;-79
2023/04/18 11:21:27;;;;;;;25.25;21.45;;;14.40;58.60;;;;;;5035173;28;20041;-79
2023/04/18 11:23:57;;;;;;;23.15;20.85;;;14.50;57.90;;;;;;5032507;28;20121;-79
2023/04/18 11:26:27;;;;;;;25.33;22.73;;;14.20;59.70;;;;;;5032081;28;20040;-79
2023/04/18 11:28:57;;;;;;;24.65;22.15;;;14.30;59.00;;;;;;5026968;28;20025;-79
2023/04/18 11:31:23;;;;;;;23.10;20.70;;;14.40;58.40;;;;;;5035565;28;20048;-79
2023/04/18 11:33:50;;;;;;;23.92;21.33;;;14.90;57.40;;;;;;5026902;28;20033;-79
2023/04/18 11:36:16;;;;;;;23.85;21.27;;;15.20;57.00;;;;;;5028697;28;20033;-79
2023/04/18 11:38:41;;;;;;;24.08;21.55;;;14.90;57.10;;;;;;5029829;28;20021;-79
2023/04/18 11:41:14;;;;;;;24.50;22.00;;;15.10;56.90;;;;;;5025915;28;20038;-79
2023/04/18 11:43:45;;;;;;;24.33;21.83;;;15.10;56.40;;;;;;5017137;28;20037;-78
2023/04/18 11:46:12;;;;;;;24.52;21.23;;;15.40;56.50;;;;;;5018916;28;20121;-79
2023/04/18 11:48:44;;;;;;;23.67;21.20;;;15.50;56.50;;;;;;5017825;28;20022;-80
2023/04/18 11:51:42;;;;;;;25.17;22.20;;;15.80;56.30;;;;;;5020080;28;20042;-79
2023/04/18 11:54:37;;;;;;;23.08;20.77;;;15.50;55.70;;;;;;5026862;28;20045;-80
2023/04/18 11:57:03;;;;;;;23.23;20.77;;;16.00;54.90;;;;;;5021707;28;20034;-78
2023/04/18 11:59:29;;;;;;;23.35;20.92;;;16.20;54.50;;;;;;5023381;28;20528;-79
2023/04/18 12:02:00;;;;;;;22.88;20.58;;;15.40;54.10;;;;;;5021331;28;20034;-80
2023/04/18 12:04:25;;;;;;;23.38;20.92;;;15.30;55.10;;;;;;5016837;28;20040;-79
2023/04/18 12:06:52;;;;;;;22.23;19.83;;;15.30;55.60;;;;;;5020004;28;20041;-79
2023/04/18 12:09:20;;;;;;;24.05;19.95;;;14.70;56.10;;;;;;5016853;28;20045;-78
2023/04/18 12:12:00;;;;;;;23.48;20.48;;;14.90;56.00;;;;;;5021559;28;20482;-77
2023/04/18 12:14:27;;;;;;;28.63;19.75;;;15.30;55.30;;;;;;5020235;28;20030;-78
2023/04/18 12:16:53;;;;;;;22.00;18.92;;;15.20;54.60;;;;;;5012422;28;20096;-78
2023/04/18 12:19:19;;;;;;;23.45;19.70;;;15.30;55.00;;;;;;5016952;28;20034;-78
2023/04/18 12:21:56;;;;;;;20.67;18.52;;;15.60;54.60;;;;;;5011289;28;20068;-79
2023/04/18 12:24:23;;;;;;;21.05;18.70;;;15.80;52.80;;;;;;5014470;28;20026;-78
2023/04/18 12:26:49;;;;;;;21.50;18.58;;;15.10;53.40;;;;;;5011443;28;20034;-79
2023/04/18 12:29:16;;;;;;;22.08;18.70;;;15.00;53.90;;;;;;5015870;28;20107;-78
2023/04/18 12:31:42;;;;;;;21.80;18.77;;;15.10;54.40;;;;;;5013553;28;20057;-77
2023/04/18 12:34:07;;;;;;;20.77;18.50;;;15.00;54.30;;;;;;5018590;28;20033;-79